Terminal Aerodrome Forecast
Issued by NWS Medford, OR

Home | Current Version | Previous Version | Text Only | Print | Product List | Glossary On
Versions: 1 2 3 4 5 6 7 8 9 10 11 12 13 14 15
000
FTUS46 KMFR 300545
TAFMFR
TAF
KMFR 300545Z 3006/3106 33005KT 5SM -RA BR SCT003 BKN010 OVC035
      TEMPO 3006/3009 3SM -RA BR BKN003 BKN010 OVC030
     FM301300 32005KT 5SM -SHRA BR BKN025 OVC035
     FM301800 32007KT P6SM -SHRA BKN050
     FM302300 32014G22KT P6SM SCT050
     FM310300 02005KT P6SM FEW050=

USA.gov is the U.S. government's official web portal to all federal, state and local government web resources and services.